Time;durP1;ratioP1;P1;durP2;ratioP2;P2;SDS_P1;SDS_P2;PMS_P1;PMS_P2;Temp;Humidity;BMP_temperature;BMP_pressure;BME280_temperature;BME280_humidity;BME280_pressure;Samples;Min_cycle;Max_cycle;Signal;HPM_P1;HPM_P2
2023/09/26 00:00:21;;;;;;;;;10.67;8.33;;;;;16.86;80.32;102164.53;5044165;28;8924;-67
2023/09/26 00:02:55;;;;;;;;;8.33;8.33;;;;;16.84;80.40;102158.44;5033219;28;8956;-67
2023/09/26 00:05:23;;;;;;;;;6.33;5.33;;;;;16.83;80.22;102160.34;5017621;28;8986;-67
2023/09/26 00:07:51;;;;;;;;;10.67;8.33;;;;;16.82;80.61;102163.28;5051723;28;8907;-67
2023/09/26 00:10:18;;;;;;;;;7.33;7.33;;;;;16.81;80.58;102176.00;5031313;28;9225;-67
2023/09/26 00:12:46;;;;;;;;;5.67;5.67;;;;;16.79;80.62;102170.78;5038990;28;9161;-67
2023/09/26 00:15:12;;;;;;;;;7.00;7.00;;;;;16.79;80.65;102183.53;5017596;28;9123;-67
2023/09/26 00:17:39;;;;;;;;;7.00;7.00;;;;;16.77;80.51;102183.75;5051516;28;8943;-67
2023/09/26 00:20:27;;;;;;;;;8.33;8.33;;;;;16.77;80.37;102183.75;5050439;28;9856;-67
2023/09/26 00:22:55;;;;;;;;;6.67;6.67;;;;;16.77;80.76;102189.19;5030692;28;9650;-67
2023/09/26 00:25:22;;;;;;;;;9.33;9.33;;;;;16.78;80.41;102181.88;5032436;28;9242;-67
2023/09/26 00:27:50;;;;;;;;;8.67;8.00;;;;;16.79;80.34;102186.25;5051391;28;9087;-67
2023/09/26 00:30:17;;;;;;;;;8.00;7.00;;;;;16.77;80.44;102189.19;5033904;28;9009;-67
2023/09/26 00:32:44;;;;;;;;;5.00;5.00;;;;;16.75;80.46;102183.09;5047244;28;8982;-66
2023/09/26 00:35:12;;;;;;;;;6.33;6.33;;;;;16.72;80.02;102188.91;5033587;28;9076;-67
2023/09/26 00:37:47;;;;;;;;;9.33;7.00;;;;;16.68;80.54;102184.91;5051055;28;9178;-67
2023/09/26 00:40:15;;;;;;;;;9.33;9.33;;;;;16.68;80.72;102184.91;5033292;28;9068;-66
2023/09/26 00:42:45;;;;;;;;;9.67;7.00;;;;;16.66;80.67;102180.75;5013259;28;9309;-68
2023/09/26 00:45:12;;;;;;;;;12.67;7.33;;;;;16.64;80.88;102193.69;5039446;28;9383;-67
2023/09/26 00:47:43;;;;;;;;;12.67;10.33;;;;;16.62;80.64;102188.47;5031146;28;9178;-67
2023/09/26 00:50:13;;;;;;;;;8.67;7.33;;;;;16.60;80.71;102193.25;5043149;28;9225;-67
2023/09/26 00:52:45;;;;;;;;;10.00;10.00;;;;;16.58;80.69;102179.03;5031829;28;9242;-67
2023/09/26 00:55:14;;;;;;;;;5.00;5.00;;;;;16.56;80.80;102179.22;5044584;28;9153;-68
2023/09/26 00:57:41;;;;;;;;;6.67;6.00;;;;;16.54;80.79;102173.16;5048043;28;9083;-67
2023/09/26 01:00:12;;;;;;;;;7.00;7.00;;;;;16.54;80.83;102180.47;5028356;28;8988;-67
2023/09/26 01:02:39;;;;;;;;;8.33;7.00;;;;;16.53;80.60;102186.94;5013219;28;9254;-67
2023/09/26 01:05:06;;;;;;;;;9.00;9.00;;;;;16.51;80.62;102180.88;5028212;28;9130;-67
2023/09/26 01:07:33;;;;;;;;;7.00;7.00;;;;;16.49;80.42;102181.06;5047610;28;9057;-67
2023/09/26 01:10:01;;;;;;;;;9.00;7.33;;;;;16.48;80.81;102170.38;5032806;28;9170;-69
2023/09/26 01:12:28;;;;;;;;;11.67;9.00;;;;;16.46;80.66;102169.75;5032304;28;9068;-67
2023/09/26 01:14:55;;;;;;;;;10.33;8.00;;;;;16.44;80.49;102186.25;5047249;28;9234;-66
2023/09/26 01:17:21;;;;;;;;;9.00;9.00;;;;;16.42;80.81;102173.91;5031302;28;9178;-67
2023/09/26 01:19:48;;;;;;;;;9.67;8.67;;;;;16.39;80.69;102169.72;5032780;28;9161;-69
2023/09/26 01:22:16;;;;;;;;;7.33;6.67;;;;;16.40;80.65;102176.81;5050636;28;9085;-67
2023/09/26 01:24:44;;;;;;;;;11.67;11.33;;;;;16.39;80.71;102168.88;5032629;28;9297;-67
2023/09/26 01:27:11;;;;;;;;;8.67;8.00;;;;;16.37;80.76;102176.41;5030761;28;9303;-69
2023/09/26 01:29:37;;;;;;;;;13.00;12.00;;;;;16.36;80.88;102172.81;5032867;28;9203;-69
2023/09/26 01:32:04;;;;;;;;;7.33;6.67;;;;;16.35;80.78;102168.44;5050366;28;9249;-67
2023/09/26 01:34:30;;;;;;;;;17.00;10.00;;;;;16.34;80.39;102166.75;5050430;28;9056;-67
2023/09/26 01:36:57;;;;;;;;;14.00;9.67;;;;;16.30;80.70;102160.06;5034994;28;9249;-67
2023/09/26 01:39:23;;;;;;;;;11.00;9.33;;;;;16.29;80.89;102167.38;5032283;28;9159;-68
2023/09/26 01:41:51;;;;;;;;;11.00;11.00;;;;;16.29;80.87;102171.97;5032260;28;9268;-67
2023/09/26 01:44:18;;;;;;;;;9.33;9.33;;;;;16.26;80.66;102164.22;5026892;28;9394;-67
2023/09/26 01:46:44;;;;;;;;;8.00;8.00;;;;;16.25;80.51;102162.53;5029751;28;9166;-67
2023/09/26 01:49:11;;;;;;;;;10.00;9.67;;;;;16.25;81.03;102154.38;5032949;28;9386;-67
2023/09/26 01:51:38;;;;;;;;;9.00;9.00;;;;;16.24;80.76;102145.38;5048216;28;9235;-67
2023/09/26 01:54:05;;;;;;;;;12.33;11.00;;;;;16.23;80.49;102154.56;5031785;28;9160;-67
2023/09/26 01:56:32;;;;;;;;;10.67;6.33;;;;;16.21;80.46;102139.53;5045973;28;9278;-67
2023/09/26 01:58:59;;;;;;;;;6.33;6.00;;;;;16.23;80.82;102140.16;5039664;28;9973;-68
2023/09/26 02:01:26;;;;;;;;;9.67;7.67;;;;;16.24;80.81;102125.50;5031927;28;9169;-68
2023/09/26 02:03:53;;;;;;;;;7.67;6.67;;;;;16.23;80.66;102132.84;5049482;28;9162;-68
2023/09/26 02:06:19;;;;;;;;;9.00;7.00;;;;;16.24;80.42;102130.94;5034850;28;9344;-68
2023/09/26 02:08:46;;;;;;;;;6.33;6.00;;;;;16.24;80.66;102129.06;5018166;28;9157;-67
2023/09/26 02:11:12;;;;;;;;;10.00;8.67;;;;;16.24;80.44;102134.50;5026732;28;9924;-68
2023/09/26 02:13:39;;;;;;;;;10.00;10.00;;;;;16.23;80.33;102127.41;5035014;28;9221;-68
2023/09/26 02:16:11;;;;;;;;;10.00;10.00;;;;;16.22;80.59;102119.47;5030384;28;9305;-68
2023/09/26 02:18:38;;;;;;;;;12.33;11.33;;;;;16.22;80.39;102122.19;5049079;28;9410;-68
2023/09/26 02:21:04;;;;;;;;;11.00;10.67;;;;;16.20;80.50;102122.34;5035748;28;9236;-68
2023/09/26 02:23:32;;;;;;;;;11.33;11.33;;;;;16.21;80.50;102115.06;5035147;28;9226;-69
2023/09/26 02:25:58;;;;;;;;;10.67;10.00;;;;;16.19;80.11;102117.97;5059327;28;9190;-67
2023/09/26 02:28:25;;;;;;;;;13.33;13.33;;;;;16.17;80.60;102113.78;5035179;28;9161;-68
2023/09/26 02:30:51;;;;;;;;;11.33;11.33;;;;;16.17;80.44;102116.50;5010863;28;9316;-68
2023/09/26 02:33:18;;;;;;;;;11.00;11.00;;;;;16.19;80.67;102115.25;5041830;28;9466;-67
2023/09/26 02:35:45;;;;;;;;;9.67;8.33;;;;;16.18;80.51;102113.59;5037767;28;10234;-68
2023/09/26 02:38:11;;;;;;;;;7.00;7.00;;;;;16.20;80.29;102122.34;5052946;28;9222;-69
2023/09/26 02:40:38;;;;;;;;;8.33;7.67;;;;;16.24;80.57;102120.09;5035649;28;9284;-67
2023/09/26 02:43:05;;;;;;;;;8.00;8.00;;;;;16.24;80.17;102118.19;5035372;28;9234;-67
2023/09/26 02:45:34;;;;;;;;;7.67;7.67;;;;;16.23;80.12;102105.66;5034326;28;9162;-67
2023/09/26 02:48:03;;;;;;;;;10.33;10.00;;;;;16.24;80.15;102114.66;5035560;28;9332;-67
2023/09/26 02:50:30;;;;;;;;;12.33;12.33;;;;;16.22;80.11;102111.31;5053005;28;10053;-68
2023/09/26 02:52:57;;;;;;;;;13.67;13.67;;;;;16.19;79.92;102109.81;5031280;28;9897;-69
2023/09/26 02:55:24;;;;;;;;;14.33;10.33;;;;;16.17;79.80;102111.91;5034019;28;9297;-69
2023/09/26 02:57:50;;;;;;;;;11.00;11.00;;;;;16.14;80.16;102101.44;5052804;28;9319;-67
2023/09/26 03:00:17;;;;;;;;;15.00;15.00;;;;;16.09;79.95;102094.94;5018664;28;9492;-68
2023/09/26 03:02:45;;;;;;;;;11.33;10.33;;;;;16.07;80.07;102104.09;5034974;28;9558;-67
2023/09/26 03:05:14;;;;;;;;;13.33;12.67;;;;;16.04;79.88;102100.94;5052262;28;9366;-67
2023/09/26 03:07:41;;;;;;;;;15.75;13.50;;;;;15.99;80.02;102098.00;5034189;28;9327;-67
2023/09/26 03:10:08;;;;;;;;;14.00;12.75;;;;;15.97;79.90;102106.34;5044437;28;9566;-67
2023/09/26 03:12:35;;;;;;;;;18.00;17.50;;;;;15.96;80.26;102109.25;5034237;28;9612;-68
2023/09/26 03:15:02;;;;;;;;;10.67;10.67;;;;;15.93;80.50;102098.81;5034665;28;9450;-68
2023/09/26 03:17:29;;;;;;;;;13.75;13.00;;;;;15.90;80.55;102100.03;5050815;28;9721;-67
2023/09/26 03:19:56;;;;;;;;;10.25;10.25;;;;;15.90;80.45;102100.03;5014465;28;9460;-68
2023/09/26 03:22:22;;;;;;;;;11.75;10.50;;;;;15.89;80.32;102100.25;5034517;28;10120;-68
2023/09/26 03:24:49;;;;;;;;;13.00;13.00;;;;;15.88;80.29;102101.25;5033492;28;9440;-67
2023/09/26 03:27:15;;;;;;;;;15.00;13.50;;;;;15.87;80.75;102094.16;5046722;28;9649;-67
2023/09/26 03:29:42;;;;;;;;;15.33;15.00;;;;;15.86;80.78;102087.91;5032885;28;10276;-67
2023/09/26 03:32:10;;;;;;;;;18.00;15.00;;;;;15.85;80.77;102093.53;5018420;28;9461;-67
2023/09/26 03:34:37;;;;;;;;;10.25;10.00;;;;;15.85;80.76;102088.94;5035816;28;9592;-67
2023/09/26 03:37:03;;;;;;;;;17.00;14.75;;;;;15.83;81.00;102083.69;5037498;28;9455;-68
2023/09/26 03:39:30;;;;;;;;;14.00;11.75;;;;;15.83;80.98;102080.97;5051197;28;9447;-67
2023/09/26 03:41:56;;;;;;;;;12.33;12.33;;;;;15.85;80.86;102085.38;5035648;28;9533;-67
2023/09/26 03:44:23;;;;;;;;;15.25;11.75;;;;;15.85;80.77;102083.50;5052150;28;9464;-68
2023/09/26 03:46:50;;;;;;;;;12.33;11.33;;;;;15.82;80.91;102076.59;5031862;28;9514;-66
2023/09/26 03:49:16;;;;;;;;;15.75;13.25;;;;;15.81;80.52;102072.19;5049601;28;9338;-67
2023/09/26 03:51:43;;;;;;;;;16.00;14.25;;;;;15.81;80.64;102072.19;5051401;28;9523;-67
2023/09/26 03:54:09;;;;;;;;;13.75;13.75;;;;;15.81;80.71;102064.06;5034067;28;9522;-68
2023/09/26 03:56:36;;;;;;;;;14.00;14.00;;;;;15.79;80.80;102063.41;5028302;28;9521;-68
2023/09/26 03:59:02;;;;;;;;;9.67;9.67;;;;;15.80;81.08;102065.09;5051766;28;9697;-67
2023/09/26 04:01:29;;;;;;;;;14.25;13.75;;;;;15.81;80.77;102069.50;5033940;28;9384;-67
2023/09/26 04:03:55;;;;;;;;;12.33;12.00;;;;;15.81;80.92;102071.38;5051458;28;9568;-68
2023/09/26 04:06:22;;;;;;;;;14.00;14.00;;;;;15.82;80.58;102068.44;5032218;28;9453;-67
2023/09/26 04:08:48;;;;;;;;;13.25;12.00;;;;;15.83;80.56;102072.00;5050278;28;9327;-68
2023/09/26 04:11:16;;;;;;;;;11.75;11.00;;;;;15.82;80.54;102070.31;5045146;28;9536;-68
2023/09/26 04:13:43;;;;;;;;;15.00;14.75;;;;;15.82;80.46;102060.28;5051170;28;10251;-68
2023/09/26 04:16:11;;;;;;;;;17.00;14.75;;;;;15.81;80.59;102057.78;5050971;28;9594;-68
2023/09/26 04:18:37;;;;;;;;;17.50;14.00;;;;;15.80;80.45;102056.97;5041892;28;9461;-67
2023/09/26 04:21:06;;;;;;;;;16.00;16.00;;;;;15.81;80.31;102061.34;5034847;28;9539;-68
2023/09/26 04:23:37;;;;;;;;;15.25;12.25;;;;;15.79;80.37;102052.53;5029641;28;9646;-67
2023/09/26 04:26:14;;;;;;;;;13.67;11.33;;;;;15.81;80.34;102055.06;5031350;28;9453;-67
2023/09/26 04:28:42;;;;;;;;;11.25;11.25;;;;;15.81;80.35;102055.91;5048226;28;9446;-67
2023/09/26 04:31:12;;;;;;;;;17.25;13.25;;;;;15.80;79.83;102048.81;5042956;28;9505;-69
2023/09/26 04:33:39;;;;;;;;;14.00;13.00;;;;;15.78;80.17;102053.59;5048655;28;9509;-67
2023/09/26 04:36:06;;;;;;;;;19.00;16.75;;;;;15.77;80.29;102051.91;5033142;28;9690;-67
2023/09/26 04:38:32;;;;;;;;;14.50;14.50;;;;;15.76;79.91;102046.69;5046725;28;9609;-68
2023/09/26 04:41:03;;;;;;;;;15.50;15.50;;;;;15.74;79.95;102044.16;5031299;28;9603;-67
2023/09/26 04:43:33;;;;;;;;;15.25;15.25;;;;;15.73;80.17;102038.94;5033167;28;9591;-68
2023/09/26 04:46:00;;;;;;;;;17.75;13.00;;;;;15.72;80.50;102038.13;5044814;28;9546;-67
2023/09/26 04:48:26;;;;;;;;;15.25;14.25;;;;;15.74;80.42;102051.47;5032257;28;9533;-67
2023/09/26 04:50:54;;;;;;;;;20.50;19.25;;;;;15.74;80.38;102056.91;5050106;28;9771;-67
2023/09/26 04:53:22;;;;;;;;;16.00;16.00;;;;;15.73;80.00;102058.78;5050586;28;9679;-68
2023/09/26 04:55:48;;;;;;;;;17.50;16.25;;;;;15.72;80.05;102048.13;5030503;28;9715;-67
2023/09/26 04:58:15;;;;;;;;;21.00;17.75;;;;;15.73;80.20;102060.66;5047670;28;9581;-68
2023/09/26 05:00:41;;;;;;;;;16.00;16.00;;;;;15.70;80.00;102058.34;5032335;28;9637;-68
2023/09/26 05:03:08;;;;;;;;;18.50;18.25;;;;;15.68;80.30;102053.13;5050318;28;9528;-67
2023/09/26 05:05:34;;;;;;;;;18.00;17.00;;;;;15.68;79.80;102055.00;5031415;28;9639;-67
2023/09/26 05:08:01;;;;;;;;;21.75;17.50;;;;;15.67;80.39;102050.59;5046434;28;9693;-67
2023/09/26 05:10:27;;;;;;;;;19.00;16.75;;;;;15.67;80.45;102056.84;5048867;28;9721;-68
2023/09/26 05:12:54;;;;;;;;;19.50;18.25;;;;;15.66;80.04;102057.91;5049523;28;10314;-67
2023/09/26 05:15:20;;;;;;;;;22.75;21.75;;;;;15.66;80.12;102062.50;5032220;28;9724;-67
2023/09/26 05:17:51;;;;;;;;;24.00;20.50;;;;;15.65;80.34;102058.94;5032895;28;9594;-68
2023/09/26 05:20:18;;;;;;;;;14.50;14.00;;;;;15.63;80.46;102063.69;5029399;28;9727;-68
2023/09/26 05:22:48;;;;;;;;;23.50;22.00;;;;;15.63;80.28;102060.13;5048723;28;10256;-67
2023/09/26 05:25:15;;;;;;;;;17.25;17.00;;;;;15.65;80.26;102063.53;5049717;28;9810;-68
2023/09/26 05:27:43;;;;;;;;;19.67;19.00;;;;;15.63;80.52;102055.53;5016269;28;9633;-66
2023/09/26 05:30:12;;;;;;;;;17.25;17.25;;;;;15.65;80.36;102058.94;5042181;28;9476;-68
2023/09/26 05:32:40;;;;;;;;;20.50;18.00;;;;;15.64;80.10;102062.66;5045449;28;9717;-67
2023/09/26 05:35:09;;;;;;;;;18.00;16.50;;;;;15.65;80.42;102058.94;5047825;28;9880;-67
2023/09/26 05:37:36;;;;;;;;;20.50;17.75;;;;;15.63;80.33;102055.53;5028224;28;9611;-68
2023/09/26 05:40:06;;;;;;;;;20.00;20.00;;;;;15.64;80.39;102062.66;5044288;28;9681;-67
2023/09/26 05:42:34;;;;;;;;;20.00;17.50;;;;;15.64;80.24;102056.38;5039659;28;9767;-68
2023/09/26 05:45:03;;;;;;;;;20.75;19.00;;;;;15.63;80.35;102052.81;5028243;28;9680;-68
2023/09/26 05:47:29;;;;;;;;;20.50;20.50;;;;;15.64;80.00;102053.66;5031523;28;9849;-67
2023/09/26 05:49:56;;;;;;;;;20.50;17.25;;;;;15.65;80.33;102053.50;5048789;28;9771;-69
2023/09/26 05:52:23;;;;;;;;;19.75;19.50;;;;;15.65;80.05;102048.09;5049689;28;9817;-68
2023/09/26 05:54:50;;;;;;;;;17.25;16.50;;;;;15.68;80.13;102044.13;5031599;28;9679;-67
2023/09/26 05:57:17;;;;;;;;;24.00;18.25;;;;;15.70;80.37;102056.47;5048037;28;9605;-67
2023/09/26 05:59:44;;;;;;;;;21.00;18.25;;;;;15.71;79.86;102055.41;5027812;28;9624;-67
2023/09/26 06:02:15;;;;;;;;;18.25;18.25;;;;;15.72;80.09;102046.25;5044373;28;9754;-68
2023/09/26 06:04:44;;;;;;;;;21.25;20.75;;;;;15.71;79.71;102058.13;5046459;28;9865;-68
2023/09/26 06:07:10;;;;;;;;;15.75;15.75;;;;;15.71;79.77;102047.28;5031693;28;9945;-67
2023/09/26 06:09:38;;;;;;;;;18.75;18.00;;;;;15.72;79.82;102051.69;5046394;28;10447;-67
2023/09/26 06:12:15;;;;;;;;;16.50;16.00;;;;;15.72;79.71;102048.97;5039407;28;9689;-68
2023/09/26 06:14:41;;;;;;;;;20.25;18.75;;;;;15.74;79.71;102049.59;5042662;28;9731;-69
2023/09/26 06:17:10;;;;;;;;;22.50;20.50;;;;;15.75;79.79;102051.25;5034641;28;9517;-68
2023/09/26 06:19:37;;;;;;;;;19.25;19.25;;;;;15.76;79.71;102050.25;5048777;28;9780;-67
2023/09/26 06:22:04;;;;;;;;;22.75;22.00;;;;;15.78;79.94;102050.88;5047549;28;9683;-68
2023/09/26 06:24:31;;;;;;;;;19.50;19.00;;;;;15.80;79.93;102051.53;5046690;28;9749;-67
2023/09/26 06:26:58;;;;;;;;;20.50;18.50;;;;;15.83;79.98;102056.53;5010208;28;9737;-68
2023/09/26 06:29:24;;;;;;;;;17.50;17.25;;;;;15.85;79.75;102053.63;5049114;28;9858;-67
2023/09/26 06:31:51;;;;;;;;;25.75;21.25;;;;;15.86;79.75;102054.47;5065870;28;9654;-67
2023/09/26 06:34:17;;;;;;;;;20.75;20.75;;;;;15.87;79.55;102051.56;5068974;28;9888;-68
2023/09/26 06:36:46;;;;;;;;;22.25;20.25;;;;;15.87;79.54;102051.56;5056669;28;9693;-68
2023/09/26 06:39:12;;;;;;;;;18.00;16.00;;;;;15.88;79.88;102053.25;5029194;28;9733;-67
2023/09/26 06:41:39;;;;;;;;;18.25;17.00;;;;;15.89;80.02;102049.50;5055719;28;9607;-68
2023/09/26 06:44:09;;;;;;;;;21.00;19.00;;;;;15.91;79.87;102052.00;5030754;28;9584;-66
2023/09/26 06:46:36;;;;;;;;;20.25;19.75;;;;;15.92;79.74;102049.09;5029926;28;9546;-66
2023/09/26 06:49:06;;;;;;;;;16.50;15.25;;;;;15.93;80.00;102055.34;5047389;28;9618;-67
2023/09/26 06:51:35;;;;;;;;;17.75;16.75;;;;;15.90;79.54;102048.44;5044818;28;9477;-67
2023/09/26 06:54:01;;;;;;;;;17.00;15.50;;;;;15.92;79.50;102038.22;5048839;28;9695;-68
2023/09/26 06:56:28;;;;;;;;;15.00;15.00;;;;;15.91;79.31;102043.84;5050994;28;9630;-68
2023/09/26 06:58:55;;;;;;;;;14.25;14.00;;;;;15.91;79.62;102057.41;5051734;28;9601;-68
2023/09/26 07:01:22;;;;;;;;;17.25;15.00;;;;;15.92;79.33;102048.22;5051168;28;9530;-67
2023/09/26 07:03:49;;;;;;;;;16.50;16.50;;;;;15.94;79.03;102041.56;5050083;28;10300;-67
2023/09/26 07:06:16;;;;;;;;;20.50;19.50;;;;;15.95;79.12;102048.66;5044434;28;9534;-67
2023/09/26 07:08:43;;;;;;;;;16.00;15.25;;;;;15.99;78.93;102040.97;5044155;28;9628;-68
2023/09/26 07:11:10;;;;;;;;;18.25;15.50;;;;;15.96;79.01;102044.06;5052051;28;9534;-67
2023/09/26 07:13:37;;;;;;;;;14.75;13.25;;;;;15.95;79.17;102042.41;5034159;28;9541;-68
2023/09/26 07:16:14;;;;;;;;;19.75;17.00;;;;;15.96;78.71;102039.50;5030868;28;10220;-67
2023/09/26 07:18:41;;;;;;;;;19.75;19.25;;;;;15.97;79.10;102032.19;5049344;28;9593;-67
2023/09/26 07:21:07;;;;;;;;;16.00;16.00;;;;;15.98;78.95;102037.41;5047563;28;9816;-68
2023/09/26 07:23:35;;;;;;;;;18.75;16.50;;;;;15.98;79.01;102028.44;5037320;28;9641;-68
2023/09/26 07:26:17;;;;;;;;;17.00;14.75;;;;;16.00;78.77;102029.06;5050799;28;9838;-68
2023/09/26 07:28:44;;;;;;;;;19.00;16.25;;;;;16.00;78.75;102019.06;5051253;28;9583;-68
2023/09/26 07:31:16;;;;;;;;;18.25;17.00;;;;;15.99;78.87;102022.78;5033154;28;9688;-67
2023/09/26 07:33:44;;;;;;;;;17.00;17.00;;;;;16.01;79.01;102034.31;5030926;28;9584;-68
2023/09/26 07:36:11;;;;;;;;;18.25;16.00;;;;;16.04;79.07;102042.06;5051026;28;9771;-67
2023/09/26 07:38:38;;;;;;;;;19.50;18.50;;;;;16.03;79.03;102043.06;5037809;28;9595;-68
2023/09/26 07:41:05;;;;;;;;;18.00;16.25;;;;;16.07;78.87;102043.50;5049943;28;9624;-68
2023/09/26 07:43:34;;;;;;;;;18.25;18.00;;;;;16.10;79.17;102031.41;5048475;28;9593;-67
2023/09/26 07:46:10;;;;;;;;;18.25;17.75;;;;;16.14;78.59;102035.41;5033233;28;9583;-68
2023/09/26 07:48:38;;;;;;;;;20.50;19.75;;;;;16.15;78.50;102043.34;5047045;28;9629;-68
2023/09/26 07:51:08;;;;;;;;;20.00;20.00;;;;;16.15;78.50;102037.91;5030631;28;10399;-67
2023/09/26 07:53:38;;;;;;;;;23.75;23.00;;;;;16.19;78.39;102041.91;5050307;28;9687;-67
2023/09/26 07:56:04;;;;;;;;;18.33;18.33;;;;;16.22;78.34;102033.34;5033035;28;9619;-67
2023/09/26 07:58:31;;;;;;;;;19.50;19.50;;;;;16.24;78.12;102038.56;5032559;28;9305;-67
2023/09/26 08:00:59;;;;;;;;;22.00;21.50;;;;;16.28;78.28;102037.97;5051229;28;9531;-68
2023/09/26 08:03:26;;;;;;;;;19.50;19.50;;;;;16.30;77.68;102029.63;5035378;28;9625;-69
2023/09/26 08:06:01;;;;;;;;;16.25;15.25;;;;;16.31;77.74;102034.84;5049700;28;9562;-68
2023/09/26 08:08:31;;;;;;;;;18.50;16.25;;;;;16.32;77.76;102036.50;5050884;28;9475;-68
2023/09/26 08:11:09;;;;;;;;;15.00;14.67;;;;;16.32;77.37;102039.22;5033196;28;9525;-68
2023/09/26 08:13:38;;;;;;;;;18.75;17.50;;;;;16.32;77.38;102035.69;5050550;28;10148;-68
2023/09/26 08:16:04;;;;;;;;;18.67;16.33;;;;;16.33;77.68;102034.66;5050741;28;9444;-67
2023/09/26 08:18:31;;;;;;;;;15.67;15.67;;;;;16.39;77.50;102035.72;5047778;28;10055;-68
2023/09/26 08:20:58;;;;;;;;;23.00;21.50;;;;;16.44;77.18;102039.47;5050604;28;9314;-67
2023/09/26 08:23:25;;;;;;;;;14.67;14.67;;;;;16.47;77.51;102040.97;5050847;28;9458;-67
2023/09/26 08:26:02;;;;;;;;;16.67;14.00;;;;;16.52;77.11;102043.91;5041931;28;9394;-68
2023/09/26 08:28:29;;;;;;;;;12.67;12.33;;;;;16.54;77.07;102026.38;5052609;28;9963;-69
2023/09/26 08:31:02;;;;;;;;;17.00;17.00;;;;;16.57;76.99;102030.56;5032414;28;10019;-67
2023/09/26 08:33:29;;;;;;;;;14.33;13.67;;;;;16.60;76.57;102023.84;5050012;28;9385;-69
2023/09/26 08:35:55;;;;;;;;;18.00;17.00;;;;;16.63;76.34;102024.28;5045790;28;9192;-68
2023/09/26 08:38:22;;;;;;;;;18.67;18.00;;;;;16.63;76.18;102029.72;5050059;28;9234;-68
2023/09/26 08:40:51;;;;;;;;;16.00;14.00;;;;;16.63;76.32;102029.72;5031213;28;9309;-68
2023/09/26 08:43:26;;;;;;;;;17.33;17.33;;;;;16.64;75.99;102028.66;5032337;28;9166;-68
2023/09/26 08:45:56;;;;;;;;;14.33;14.33;;;;;16.66;76.38;102029.31;5024073;28;9371;-70
2023/09/26 08:48:22;;;;;;;;;13.00;13.00;;;;;16.69;76.42;102028.06;5049912;28;8979;-69
2023/09/26 08:50:50;;;;;;;;;12.67;11.67;;;;;16.74;76.33;102033.78;5032603;28;9463;-69
2023/09/26 08:53:17;;;;;;;;;16.00;14.00;;;;;16.79;76.29;102023.09;5062964;28;9848;-69
2023/09/26 08:55:45;;;;;;;;;15.33;11.67;;;;;16.83;76.19;102024.38;5043405;28;9791;-68
2023/09/26 08:58:14;;;;;;;;;13.67;13.33;;;;;16.87;75.91;102011.19;5049591;28;9376;-68
2023/09/26 09:00:44;;;;;;;;;21.00;19.33;;;;;16.89;75.87;102011.81;5050081;28;9169;-67
2023/09/26 09:03:10;;;;;;;;;20.00;18.00;;;;;16.96;75.92;102004.50;5047848;28;9324;-69
2023/09/26 09:05:42;;;;;;;;;13.67;13.33;;;;;17.02;75.27;101998.25;5052019;28;9248;-67
2023/09/26 09:08:16;;;;;;;;;15.00;14.33;;;;;17.10;75.69;101998.03;5061915;28;9383;-68
2023/09/26 09:11:01;;;;;;;;;15.33;13.67;;;;;17.15;75.18;102016.44;5049969;28;9322;-68
2023/09/26 09:13:43;;;;;;;;;12.33;12.33;;;;;17.16;75.44;102024.38;5049868;28;9313;-67
2023/09/26 09:16:15;;;;;;;;;14.00;14.00;;;;;17.20;75.02;102006.59;5030767;28;9013;-68
2023/09/26 09:18:44;;;;;;;;;18.00;18.00;;;;;17.21;75.60;101985.66;5049591;28;9171;-67
2023/09/26 09:21:31;;;;;;;;;17.33;17.33;;;;;17.19;75.19;102001.38;5028892;28;10060;-68
2023/09/26 09:24:06;;;;;;;;;15.67;15.67;;;;;17.18;75.47;102011.44;5050679;28;9169;-69
2023/09/26 09:26:35;;;;;;;;;16.33;15.00;;;;;17.18;75.19;102003.25;5046026;28;9154;-68
2023/09/26 09:29:17;;;;;;;;;13.33;13.33;;;;;17.21;75.23;102002.81;5051663;28;9272;-70
2023/09/26 09:31:43;;;;;;;;;10.33;10.33;;;;;17.23;75.06;101995.28;5027509;28;9004;-69
2023/09/26 09:34:10;;;;;;;;;14.00;12.00;;;;;17.26;75.14;101983.16;5055435;28;9167;-70
2023/09/26 09:36:40;;;;;;;;;12.00;10.00;;;;;17.32;74.92;101984.19;5030840;28;9056;-70
2023/09/26 09:39:09;;;;;;;;;10.33;9.00;;;;;17.34;74.62;101993.84;5048606;28;9235;-70
2023/09/26 09:41:42;;;;;;;;;11.00;10.00;;;;;17.34;74.89;101987.53;5041709;28;8997;-70
2023/09/26 09:44:08;;;;;;;;;9.00;9.00;;;;;17.35;74.66;101990.06;5047230;28;9174;-70
2023/09/26 09:46:38;;;;;;;;;6.67;6.67;;;;;17.37;74.47;101989.84;5048414;28;8994;-70
2023/09/26 09:49:11;;;;;;;;;10.00;9.00;;;;;17.39;74.50;101987.75;5037048;28;8997;-69
2023/09/26 09:51:42;;;;;;;;;11.67;11.67;;;;;17.41;74.86;101999.25;5029361;28;9837;-70
2023/09/26 09:54:13;;;;;;;;;6.25;6.25;;;;;17.43;74.89;101998.00;5045271;28;8922;-69
2023/09/26 09:56:39;;;;;;;;;12.00;10.33;;;;;17.46;74.80;101999.44;5030879;28;9920;-69
2023/09/26 09:59:12;;;;;;;;;10.00;10.00;;;;;17.50;75.17;102003.41;5048912;28;9088;-71
2023/09/26 10:01:43;;;;;;;;;8.67;8.33;;;;;17.53;75.21;102000.28;5048302;28;8837;-71
2023/09/26 10:04:10;;;;;;;;;10.75;9.25;;;;;17.57;75.02;102008.88;5044251;28;8952;-70
2023/09/26 10:06:38;;;;;;;;;10.33;10.00;;;;;17.60;74.88;102001.09;5048368;28;8912;-70
2023/09/26 10:09:06;;;;;;;;;10.00;10.00;;;;;17.61;74.84;101996.50;5031310;28;9145;-70
2023/09/26 10:11:34;;;;;;;;;14.00;13.00;;;;;17.60;74.46;101994.84;5031084;28;9004;-70
2023/09/26 10:14:07;;;;;;;;;12.33;12.00;;;;;17.59;74.12;101995.88;5044276;28;9160;-70
2023/09/26 10:16:33;;;;;;;;;19.00;13.00;;;;;17.60;74.01;101995.66;5025419;28;9156;-70
2023/09/26 10:19:00;;;;;;;;;14.67;13.33;;;;;17.61;73.86;101994.59;5046379;28;8842;-69
2023/09/26 10:21:30;;;;;;;;;15.00;13.00;;;;;17.63;73.45;101995.25;5049293;28;8996;-69
2023/09/26 10:24:06;;;;;;;;;19.00;17.67;;;;;17.66;73.18;101992.09;5050475;28;9003;-69
2023/09/26 10:26:33;;;;;;;;;13.33;13.33;;;;;17.69;73.18;101991.66;5048239;28;9150;-69
2023/09/26 10:29:06;;;;;;;;;14.00;12.00;;;;;17.72;72.84;101990.41;5048576;28;9119;-68
2023/09/26 10:31:33;;;;;;;;;12.00;10.33;;;;;17.74;72.53;101996.47;5052915;28;9784;-68
2023/09/26 10:34:01;;;;;;;;;15.00;12.33;;;;;17.71;72.75;101991.47;5033008;28;9081;-68
2023/09/26 10:36:29;;;;;;;;;20.00;18.00;;;;;17.69;72.67;101986.22;5046288;28;8989;-68
2023/09/26 10:39:00;;;;;;;;;17.33;16.67;;;;;17.69;72.55;101975.31;5052209;28;9060;-67
2023/09/26 10:41:27;;;;;;;;;13.00;13.00;;;;;17.75;72.77;101984.56;5040187;28;9274;-69
2023/09/26 10:43:54;;;;;;;;;15.00;15.00;;;;;17.82;72.54;101979.09;5049832;28;9028;-67
2023/09/26 10:46:25;;;;;;;;;15.67;15.67;;;;;17.86;72.47;101978.44;5045696;28;9061;-70
2023/09/26 10:48:52;;;;;;;;;15.67;15.33;;;;;17.94;72.26;101982.81;5037061;28;9014;-70
2023/09/26 10:51:19;;;;;;;;;13.67;11.33;;;;;18.01;72.10;101975.44;5033815;28;9052;-68
2023/09/26 10:53:47;;;;;;;;;15.00;13.67;;;;;18.04;72.21;101969.59;5034853;28;8980;-70
2023/09/26 10:56:14;;;;;;;;;11.67;11.00;;;;;18.07;72.14;101965.56;5052457;28;9000;-69
2023/09/26 10:58:41;;;;;;;;;12.50;10.00;;;;;18.11;72.33;101969.53;5052752;28;9185;-70
2023/09/26 11:01:11;;;;;;;;;10.75;9.75;;;;;18.19;72.42;101969.28;5035002;28;8847;-70
2023/09/26 11:03:38;;;;;;;;;12.50;8.50;;;;;18.26;72.23;101960.03;5052565;28;8847;-69
2023/09/26 11:06:07;;;;;;;;;9.50;7.75;;;;;18.37;72.27;101963.13;5052700;28;8823;-69
2023/09/26 11:08:33;;;;;;;;;8.75;8.75;;;;;18.45;72.09;101971.88;5034904;28;8977;-68
2023/09/26 11:11:00;;;;;;;;;14.00;14.00;;;;;18.43;71.97;101965.81;5049273;28;8862;-69
2023/09/26 11:13:27;;;;;;;;;9.75;9.50;;;;;18.44;71.61;101961.19;5029229;28;8793;-69
2023/09/26 11:15:54;;;;;;;;;15.50;13.50;;;;;18.41;71.58;101964.34;5021577;28;8829;-68
2023/09/26 11:18:22;;;;;;;;;15.00;12.00;;;;;18.47;71.38;101967.06;5032368;28;8837;-69
2023/09/26 11:20:50;;;;;;;;;15.50;13.50;;;;;18.57;71.05;101961.09;5032634;28;9724;-67
2023/09/26 11:23:39;;;;;;;;;7.75;7.75;;;;;18.73;70.76;101954.31;5052445;28;8846;-70